Grand Strand Airport
KCRE : now visible

Airfield :











YOU CAN JOIN US ON...

 
LOGIN :

Register | Disclaimer

   EN    FR    IT 

 









Legend :    VFR   Marginal VFR   IFR   Intensive IFR   Very Intensive IFR
Visi :
Ceiling :
>= 8 km
>= 3000ft
5 to 8 km
1000 to 3000 ft
1500m to 5 km
500 to 1000 ft
800 to 1500m
200 to 500 ft
< 800m
< 200 ft
Symbols :   Thunderstorms  Fog  Heavy snow  Heavy precipitations  Wind > 20 kt







- Airport Elevation : 32 ft


KCRE - Grand Strand

CURRENT METAR :
  • 181853Z 17010G16KT 10SM SCT047 24/18 A3005 RMK AO1 SLP177 T02390178

EXPIRED METARs :
  • 181753Z 17008KT 10SM BKN047 24/17 A3008 RMK AO1 SLP185 T02390172 10244 20167 58009
  • 181653Z 17008KT 10SM CLR 24/17 A3008 RMK AO1 SLP188 T02390172

TAF KCRE
Valid from the 18 at 18:00 until the 19 at 18:00 UTC


181740Z 1818/1918 18011G18KT P6SM SCT150
FM181900 18012KT P6SM SCT150
FM182000 17012G20KT P6SM SCT150
FM190200 17011KT P6SM BKN100
FM190900 18015G25KT P6SM BKN035
FM191100 18016G25KT 6SM -SHRA BKN040
FM191200 18017KT 6SM -SHRA OVC035
FM191300 18017G24KT 5SM -SHRA BKN030
FM191400 18016G27KT 6SM -SHRA BKN025
KZJX FIR / North America



MET'MAP, your aeronautical weather chart ! - Copyright ORBIFLY December 2007 - Disclaimer

ORBIFLY MET'MAP TEAM :

Programming & Development : Alexandra Zaïnal
Concept & Development : Baudouin d'Aumeries
Co-Development & Prog : Marc-Olivier Méhu
Technical & hardware support : Manuel Goepfert

Contact : metmap@orbifly.com




SOURCES & CREDITS :

   NOAA       Earth
Advisory